Impacts TAF Board
For situational awareness. Not to be used for flight planning purposes.
IDs:

KLGA - New York/La Guardia, NY, US

Issued at 0836 UTC 15 Dec 2018
Updated at 1114 UTC 15 Dec 2018
Potential Impact None Slight Moderate High
Time1107Z 15/12Z 15/13Z 15/14Z 15/15Z 15/16Z 15/17Z 15/18Z 15/19Z 15/20Z 15/21Z 15/22Z 15/23Z 16/00Z>>
Type OBS PRVL
  [TEMP]  
PRVL PRVL PRVL PRVL PRVL PRVL PRVL PRVL PRVL PRVL PRVL PRVL
VIS 2 5
  [3]  
5 5 5 >6 >6 >6 >6 >6 >6 >6 >6 >6
CIG 3 6
  [4]  
6 6 6 15 15 15 200 200 200 200 200 200
Cover OVC OVC
  [OVC]  
OVC OVC OVC BKN BKN BKN BKN BKN BKN BKN BKN BKN
FltCat LIFR IFR
  [LIFR]  
IFR IFR IFR MVFR MVFR MVFR VFR VFR VFR VFR VFR VFR
WX BR -RA BR
  [-RA BR]  
-RA BR -RA BR -RA BR -- -- -- -- -- -- -- -- --
WDir 20 VRB
[VRB]
VRB VRB VRB 30 30 30 20 20 20 20 20 20
WSpd 6 3
  [3]  
3 3 3 7 7 7 10 10 10 10 10 10
WGst -- --
  [--]  
-- -- -- -- -- -- 16 16 16 16 16 16
Raw TAF
KLGA 150836Z 1509/1612 VRB03KT 5SM -RA BR BKN006 OVC010
  TEMPO 1509/1513 3SM -RA BR OVC004
  FM151600 03007KT P6SM BKN015 BKN025
  FM151900 02010G16KT P6SM SCT035 BKN200
  FM160500 05011G18KT P6SM BKN050
  FM160900 05017G23KT 3SM -RA BR BKN015 OVC035


Raw METAR
KLGA 151107Z 02006KT 2SM BR OVC003 08/07 A3019 RMK AO2 SFC VIS 4 T00830072
KLGA 151051Z 04005KT 1/2SM R04/P6000FT BR BKN003 OVC011 08/07 A3018 RMK AO2 SFC VIS 4 RAE15 SLP219 P0000 T00780067
KLGA 151046Z 06005KT 1/2SM R04/P6000FT BR BKN003 OVC011 08/07 A3018 RMK AO2 SFC VIS 4 RAE15 P0000
KLGA 151035Z 05005KT 1SM R04/P6000FT FEW002 OVC011 08/07 A3017 RMK AO2 SFC VIS 7 RAE15 P0000 T00780072
KLGA 151018Z 08005KT 1SM R04/P6000FT OVC010 08/08 A3017 RMK AO2 SFC VIS 9 RAE15 P0000 T00780078
KLGA 151004Z 02005KT 1SM R04/P6000FT -RA SCT003 OVC008 08/07 A3018 RMK AO2 SFC VIS 10 CIG 003 R22 SW P0000 T00830072
KLGA 150951Z 03009KT 1SM R04/P6000FT -RA BKN003 OVC013 08/07 A3017 RMK AO2 SFC VIS 8 SLP217 P0002 T00830072
KLGA 150909Z 12004KT 1SM R04/P6000FT -RA BR BKN004 OVC016 08/07 A3018 RMK AO2 SFC VIS 6 P0000 T00780072
KLGA 150851Z 10004KT 1SM R04/P6000FT -RA BR BKN003 OVC016 08/07 A3020 RMK AO2 SFC VIS 5 SLP225 P0003 60008 T00780072 58008

METAR Board
Radar Display
Forecast Discussion
For situational awareness. Not to be used for flight planning purposes.